Time;durP1;ratioP1;P1;durP2;ratioP2;P2;SDS_P1;SDS_P2;PMS_P1;PMS_P2;Temp;Humidity;BMP_temperature;BMP_pressure;BME280_temperature;BME280_humidity;BME280_pressure;Samples;Min_cycle;Max_cycle;Signal;HPM_P1;HPM_P2
2021/04/27 00:01:42;;;;;;;11.23;5.53;;;;;;;;;;5089608;28;20099;-74
2021/04/27 00:04:08;;;;;;;12.43;5.35;;;;;;;;;;5089107;28;20032;-75
2021/04/27 00:06:34;;;;;;;10.10;5.53;;;;;;;;;;5086791;28;20136;-75
2021/04/27 00:09:00;;;;;;;14.10;5.15;;;;;;;;;;5090315;28;20039;-74
2021/04/27 00:11:26;;;;;;;13.00;5.13;;;;;;;;;;5090419;28;20024;-76
2021/04/27 00:13:52;;;;;;;13.20;4.70;;;;;;;;;;5089032;28;20555;-76
2021/04/27 00:16:19;;;;;;;10.20;5.15;;;;;;;;;;5089422;28;20107;-77
2021/04/27 00:18:46;;;;;;;11.52;4.50;;;;;;;;;;5079677;28;20052;-75
2021/04/27 00:21:12;;;;;;;8.82;4.20;;;;;;;;;;5086573;28;20048;-76
2021/04/27 00:23:38;;;;;;;15.18;4.80;;;;;;;;;;5089633;28;20024;-76
2021/04/27 00:26:04;;;;;;;10.18;5.07;;;;;;;;;;5089333;28;20035;-77
2021/04/27 00:28:30;;;;;;;11.75;5.43;;;;;;;;;;5089760;28;20024;-76
2021/04/27 00:30:56;;;;;;;13.52;5.10;;;;;;;;;;5090503;28;20019;-76
2021/04/27 00:33:23;;;;;;;12.52;4.82;;;;;;;;;;5087083;28;20490;-76
2021/04/27 00:35:49;;;;;;;13.45;4.63;;;;;;;;;;5086075;28;20056;-77
2021/04/27 00:38:15;;;;;;;10.90;4.47;;;;;;;;;;5089800;28;20691;-77
2021/04/27 00:40:41;;;;;;;15.98;4.93;;;;;;;;;;5090433;28;20634;-78
2021/04/27 00:43:07;;;;;;;9.65;4.25;;;;;;;;;;5089660;28;20025;-83
2021/04/27 00:45:33;;;;;;;13.80;4.82;;;;;;;;;;5088589;28;20024;-79
2021/04/27 00:47:59;;;;;;;8.18;4.57;;;;;;;;;;5092585;28;20468;-77
2021/04/27 00:50:27;;;;;;;12.25;5.75;;;;;;;;;;5093182;28;20024;-78
2021/04/27 00:52:54;;;;;;;12.32;5.25;;;;;;;;;;5093086;28;20024;-77
2021/04/27 00:55:21;;;;;;;15.18;5.72;;;;;;;;;;5092598;28;20043;-78
2021/04/27 00:57:48;;;;;;;13.63;5.03;;;;;;;;;;5090549;28;20498;-78
2021/04/27 01:00:16;;;;;;;13.05;5.28;;;;;;;;;;5087753;28;20115;-78
2021/04/27 01:02:42;;;;;;;9.00;4.63;;;;;;;;;;5085666;28;20024;-79
2021/04/27 01:05:09;;;;;;;11.40;6.00;;;;;;;;;;5092902;28;20025;-79
2021/04/27 01:07:37;;;;;;;9.98;5.50;;;;;;;;;;5091191;28;20028;-80
2021/04/27 01:10:06;;;;;;;11.50;4.70;;;;;;;;;;5090608;28;20082;-78
2021/04/27 01:12:36;;;;;;;14.50;5.70;;;;;;;;;;5089740;28;20028;-78
2021/04/27 01:15:14;;;;;;;15.30;6.32;;;;;;;;;;5092109;28;20020;-77
2021/04/27 01:17:40;;;;;;;12.68;5.90;;;;;;;;;;5092066;28;20123;-77
2021/04/27 01:20:15;;;;;;;12.40;5.65;;;;;;;;;;5091339;28;20039;-76
2021/04/27 01:22:52;;;;;;;10.18;5.22;;;;;;;;;;5098374;28;20051;-77
2021/04/27 01:25:36;;;;;;;10.00;5.55;;;;;;;;;;5092135;28;20027;-84
2021/04/27 01:28:04;;;;;;;13.18;5.43;;;;;;;;;;5092895;28;20012;-77
2021/04/27 01:30:31;;;;;;;17.83;6.53;;;;;;;;;;5092977;28;20024;-77
2021/04/27 01:32:57;;;;;;;12.40;5.45;;;;;;;;;;5089709;28;20028;-77
2021/04/27 01:35:24;;;;;;;12.25;5.88;;;;;;;;;;5082711;28;20410;-81
2021/04/27 01:37:50;;;;;;;16.88;6.63;;;;;;;;;;5092248;28;20043;-77
2021/04/27 01:40:16;;;;;;;17.95;8.23;;;;;;;;;;5091372;28;20032;-77
2021/04/27 01:42:42;;;;;;;15.15;6.13;;;;;;;;;;5082158;28;20039;-77
2021/04/27 01:45:09;;;;;;;12.48;5.95;;;;;;;;;;5091349;28;20498;-82
2021/04/27 01:47:35;;;;;;;11.77;6.13;;;;;;;;;;5088912;28;20043;-77
2021/04/27 01:50:01;;;;;;;15.75;6.00;;;;;;;;;;5092891;28;20077;-77
2021/04/27 01:52:28;;;;;;;13.57;5.88;;;;;;;;;;5091103;28;20024;-78
2021/04/27 01:54:54;;;;;;;12.70;6.22;;;;;;;;;;5090169;28;20398;-77
2021/04/27 01:57:21;;;;;;;14.63;6.10;;;;;;;;;;5090702;28;20050;-77
2021/04/27 01:59:47;;;;;;;12.48;6.30;;;;;;;;;;5091056;28;20039;-78
2021/04/27 02:02:13;;;;;;;14.30;6.63;;;;;;;;;;5089007;28;20034;-79
2021/04/27 02:04:39;;;;;;;17.17;7.00;;;;;;;;;;5092187;28;20073;-78
2021/04/27 02:07:05;;;;;;;19.52;6.60;;;;;;;;;;5090677;28;20039;-78
2021/04/27 02:09:31;;;;;;;16.48;6.78;;;;;;;;;;5090797;28;20031;-79
2021/04/27 02:11:59;;;;;;;13.82;6.50;;;;;;;;;;5091557;28;20057;-77
2021/04/27 02:14:27;;;;;;;15.55;6.47;;;;;;;;;;5091535;28;20028;-78
2021/04/27 02:17:15;;;;;;;14.57;6.75;;;;;;;;;;5091009;28;20024;-78
2021/04/27 02:19:41;;;;;;;16.45;7.10;;;;;;;;;;5090731;28;20024;-77
2021/04/27 02:22:09;;;;;;;11.13;6.57;;;;;;;;;;5085366;28;20052;-84
2021/04/27 02:24:38;;;;;;;16.90;6.97;;;;;;;;;;5092073;28;20036;-78
2021/04/27 02:27:04;;;;;;;10.43;6.15;;;;;;;;;;5089663;28;20650;-77
2021/04/27 02:29:31;;;;;;;16.33;6.88;;;;;;;;;;5089839;28;20485;-78
2021/04/27 02:31:58;;;;;;;17.95;7.03;;;;;;;;;;5090604;28;20028;-78
2021/04/27 02:34:25;;;;;;;15.05;6.97;;;;;;;;;;5088994;28;20448;-78
2021/04/27 02:36:52;;;;;;;17.15;6.65;;;;;;;;;;5097461;28;20028;-78
2021/04/27 02:39:18;;;;;;;16.25;7.05;;;;;;;;;;5091924;28;20515;-78
2021/04/27 02:41:44;;;;;;;15.20;7.28;;;;;;;;;;5091351;28;20069;-77
2021/04/27 02:44:11;;;;;;;18.52;7.78;;;;;;;;;;5090194;28;20032;-78
2021/04/27 02:46:37;;;;;;;11.43;6.72;;;;;;;;;;5082537;28;20027;-77
2021/04/27 02:49:04;;;;;;;15.43;7.47;;;;;;;;;;5091937;28;20054;-77
2021/04/27 02:51:30;;;;;;;18.58;6.55;;;;;;;;;;5089527;28;20058;-78
2021/04/27 02:53:56;;;;;;;12.40;7.03;;;;;;;;;;5091273;28;20024;-78
2021/04/27 02:56:22;;;;;;;15.98;7.60;;;;;;;;;;5089282;28;20525;-78
2021/04/27 02:58:48;;;;;;;15.27;6.57;;;;;;;;;;5090495;28;20089;-77
2021/04/27 03:01:15;;;;;;;15.38;7.00;;;;;;;;;;5090893;28;20055;-78
2021/04/27 03:03:41;;;;;;;17.65;7.15;;;;;;;;;;5089036;28;20032;-77
2021/04/27 03:06:07;;;;;;;15.15;6.72;;;;;;;;;;5087766;28;20038;-78
2021/04/27 03:08:33;;;;;;;18.05;7.95;;;;;;;;;;5090319;28;20089;-77
2021/04/27 03:11:00;;;;;;;17.45;7.55;;;;;;;;;;5091517;28;20081;-78
2021/04/27 03:13:26;;;;;;;15.65;7.35;;;;;;;;;;5090586;28;20032;-77
2021/04/27 03:15:52;;;;;;;24.33;8.23;;;;;;;;;;5089485;28;20024;-77
2021/04/27 03:18:18;;;;;;;14.52;7.22;;;;;;;;;;5087581;28;20031;-78
2021/04/27 03:20:45;;;;;;;21.40;8.18;;;;;;;;;;5090406;28;20047;-77
2021/04/27 03:23:11;;;;;;;17.63;8.27;;;;;;;;;;5090399;28;20092;-76
2021/04/27 03:25:37;;;;;;;14.93;7.72;;;;;;;;;;5089977;28;20023;-78
2021/04/27 03:28:05;;;;;;;17.02;8.25;;;;;;;;;;5089556;28;20039;-78
2021/04/27 03:30:31;;;;;;;13.75;7.45;;;;;;;;;;5089270;28;20051;-78
2021/04/27 03:32:57;;;;;;;14.48;8.15;;;;;;;;;;5090374;28;20116;-78
2021/04/27 03:35:23;;;;;;;17.48;8.68;;;;;;;;;;5080952;28;20027;-84
2021/04/27 03:37:49;;;;;;;16.88;9.05;;;;;;;;;;5089755;28;20028;-78
2021/04/27 03:40:16;;;;;;;19.13;9.27;;;;;;;;;;5089793;28;20051;-77
2021/04/27 03:42:42;;;;;;;17.73;8.85;;;;;;;;;;5086966;28;20509;-77
2021/04/27 03:45:10;;;;;;;22.00;9.25;;;;;;;;;;5090917;28;20020;-79
2021/04/27 03:47:36;;;;;;;21.40;9.90;;;;;;;;;;5086669;28;20036;-78
2021/04/27 03:50:03;;;;;;;22.92;9.50;;;;;;;;;;5089816;28;20031;-78
2021/04/27 03:52:29;;;;;;;17.88;9.98;;;;;;;;;;5089885;28;20034;-77
2021/04/27 03:54:55;;;;;;;17.50;9.85;;;;;;;;;;5086933;28;20032;-77
2021/04/27 03:57:21;;;;;;;18.85;9.27;;;;;;;;;;5088758;28;20032;-78
2021/04/27 03:59:48;;;;;;;23.67;9.82;;;;;;;;;;5088451;28;20028;-78
2021/04/27 04:02:14;;;;;;;21.20;9.52;;;;;;;;;;5086673;28;20040;-78
2021/04/27 04:04:40;;;;;;;22.92;9.05;;;;;;;;;;5089689;28;20097;-77
2021/04/27 04:07:06;;;;;;;20.88;9.43;;;;;;;;;;5088027;28;20023;-77
2021/04/27 04:09:32;;;;;;;16.27;8.60;;;;;;;;;;5089209;28;20119;-77
2021/04/27 04:11:58;;;;;;;18.70;9.10;;;;;;;;;;5089934;28;20039;-78
2021/04/27 04:14:24;;;;;;;21.35;9.70;;;;;;;;;;5089619;28;20092;-78
2021/04/27 04:16:50;;;;;;;21.67;11.93;;;;;;;;;;5088355;28;20036;-78
2021/04/27 04:19:16;;;;;;;20.08;8.25;;;;;;;;;;5090792;28;20492;-78
2021/04/27 04:21:43;;;;;;;16.73;9.13;;;;;;;;;;5090625;28;20044;-77
2021/04/27 04:24:10;;;;;;;14.82;8.13;;;;;;;;;;5090521;28;20075;-77
2021/04/27 04:26:37;;;;;;;19.75;8.27;;;;;;;;;;5092234;28;20016;-78
2021/04/27 04:29:05;;;;;;;16.60;7.78;;;;;;;;;;5093633;28;20044;-78
2021/04/27 04:31:31;;;;;;;18.30;9.10;;;;;;;;;;5093111;28;20020;-78
2021/04/27 04:33:57;;;;;;;16.25;8.57;;;;;;;;;;5092421;28;20028;-79
2021/04/27 04:36:23;;;;;;;19.90;8.68;;;;;;;;;;5092439;28;20043;-78
2021/04/27 04:38:49;;;;;;;18.25;9.45;;;;;;;;;;5090981;28;20115;-79
2021/04/27 04:41:15;;;;;;;16.98;9.20;;;;;;;;;;5091414;28;20032;-78
2021/04/27 04:43:42;;;;;;;17.70;10.00;;;;;;;;;;5093860;28;20477;-78
2021/04/27 04:46:08;;;;;;;18.55;9.32;;;;;;;;;;5091192;28;20032;-79
2021/04/27 04:48:34;;;;;;;23.33;10.88;;;;;;;;;;5091966;28;20626;-78
2021/04/27 04:51:00;;;;;;;19.95;8.88;;;;;;;;;;5091114;28;20016;-79
2021/04/27 04:53:26;;;;;;;19.88;9.80;;;;;;;;;;5092974;28;20031;-79
2021/04/27 04:55:52;;;;;;;19.88;10.27;;;;;;;;;;5092851;28;20031;-78
2021/04/27 04:58:18;;;;;;;20.95;11.40;;;;;;;;;;5091791;28;20088;-80
2021/04/27 05:00:44;;;;;;;18.90;9.32;;;;;;;;;;5093938;28;20028;-79
2021/04/27 05:03:10;;;;;;;18.95;10.15;;;;;;;;;;5093500;28;20082;-80
2021/04/27 05:05:36;;;;;;;24.35;10.98;;;;;;;;;;5091928;28;20139;-78
2021/04/27 05:10:35;;;;;;;23.42;11.35;;;;;;;;;;5087007;28;20447;-78
2021/04/27 05:13:01;;;;;;;20.13;10.63;;;;;;;;;;5082427;28;20036;-78
2021/04/27 05:15:27;;;;;;;17.95;10.25;;;;;;;;;;5090742;28;20020;-80
2021/04/27 05:17:53;;;;;;;18.35;10.05;;;;;;;;;;5093751;28;20103;-79
2021/04/27 05:20:19;;;;;;;20.63;10.73;;;;;;;;;;5092728;28;20035;-79
2021/04/27 05:22:45;;;;;;;18.73;10.38;;;;;;;;;;5094395;28;20051;-78
2021/04/27 05:25:13;;;;;;;21.77;10.38;;;;;;;;;;5092455;28;20024;-83
2021/04/27 05:27:39;;;;;;;17.13;10.18;;;;;;;;;;5091407;28;20028;-78
2021/04/27 05:30:05;;;;;;;18.63;10.00;;;;;;;;;;5093381;28;20024;-77
2021/04/27 05:32:31;;;;;;;20.88;9.85;;;;;;;;;;5091974;28;20047;-77
2021/04/27 05:34:57;;;;;;;18.52;9.90;;;;;;;;;;5091989;28;20039;-78
2021/04/27 05:37:23;;;;;;;16.10;9.60;;;;;;;;;;5092692;28;20032;-78
2021/04/27 05:39:50;;;;;;;17.90;9.15;;;;;;;;;;5092477;28;20512;-78
2021/04/27 05:42:16;;;;;;;20.30;9.32;;;;;;;;;;5092071;28;20039;-78
2021/04/27 05:44:42;;;;;;;20.20;9.40;;;;;;;;;;5092653;28;20016;-77
2021/04/27 05:47:08;;;;;;;16.77;9.65;;;;;;;;;;5090726;28;20066;-78
2021/04/27 05:49:34;;;;;;;22.98;10.48;;;;;;;;;;5092657;28;20016;-77
2021/04/27 05:52:00;;;;;;;16.38;9.10;;;;;;;;;;5092010;28;20031;-77
2021/04/27 05:54:26;;;;;;;19.42;9.35;;;;;;;;;;5090521;28;20024;-77
2021/04/27 05:56:52;;;;;;;20.25;8.88;;;;;;;;;;5090692;28;20035;-78
2021/04/27 05:59:18;;;;;;;17.65;9.85;;;;;;;;;;5087448;28;20032;-77
2021/04/27 06:01:44;;;;;;;18.15;9.90;;;;;;;;;;5089825;28;20025;-77
2021/04/27 06:04:10;;;;;;;18.08;9.75;;;;;;;;;;5091262;28;20039;-77
2021/04/27 06:06:37;;;;;;;15.25;9.40;;;;;;;;;;5089609;28;20028;-77
2021/04/27 06:09:07;;;;;;;18.15;8.60;;;;;;;;;;5090847;28;20024;-77
2021/04/27 06:11:33;;;;;;;17.58;8.60;;;;;;;;;;5087362;28;20027;-77
2021/04/27 06:14:00;;;;;;;15.98;9.50;;;;;;;;;;5089974;28;20051;-77
2021/04/27 06:16:27;;;;;;;16.45;9.25;;;;;;;;;;5090463;28;20398;-77
2021/04/27 06:18:53;;;;;;;16.27;9.07;;;;;;;;;;5092088;28;20020;-76
2021/04/27 06:21:19;;;;;;;16.00;9.23;;;;;;;;;;5090574;28;20044;-77
2021/04/27 06:23:45;;;;;;;20.80;9.07;;;;;;;;;;5091168;28;20034;-77
2021/04/27 06:26:12;;;;;;;15.57;8.35;;;;;;;;;;5089343;28;20028;-77
2021/04/27 06:28:38;;;;;;;14.68;9.65;;;;;;;;;;5090496;28;20024;-77
2021/04/27 06:31:04;;;;;;;18.65;9.75;;;;;;;;;;5092202;28;20494;-77
2021/04/27 06:33:31;;;;;;;18.27;8.70;;;;;;;;;;5089770;28;20529;-76
2021/04/27 06:35:57;;;;;;;15.88;8.48;;;;;;;;;;5089373;28;20386;-77
2021/04/27 06:38:23;;;;;;;15.88;8.63;;;;;;;;;;5085784;28;20028;-78
2021/04/27 06:40:52;;;;;;;15.20;8.48;;;;;;;;;;5084021;28;20036;-77
2021/04/27 06:43:18;;;;;;;19.38;10.00;;;;;;;;;;5086968;28;20024;-77
2021/04/27 06:45:44;;;;;;;18.13;9.70;;;;;;;;;;5090258;28;20042;-78
2021/04/27 06:48:11;;;;;;;15.52;7.97;;;;;;;;;;5086566;28;20394;-77
2021/04/27 06:50:38;;;;;;;13.50;8.10;;;;;;;;;;5088341;28;20020;-77
2021/04/27 06:53:04;;;;;;;17.50;8.13;;;;;;;;;;5088422;28;20036;-77
2021/04/27 06:55:30;;;;;;;18.08;9.05;;;;;;;;;;5088991;28;20032;-77
2021/04/27 06:58:02;;;;;;;16.35;9.20;;;;;;;;;;5082976;28;20031;-77
2021/04/27 07:00:28;;;;;;;;;;;;;;;;;;5088380;28;20031;-77
2021/04/27 07:02:54;;;;;;;17.80;9.38;;;;;;;;;;5084338;28;19915;-77
2021/04/27 07:05:21;;;;;;;17.95;8.85;;;;;;;;;;5085021;28;20547;-78
2021/04/27 07:07:47;;;;;;;16.13;8.70;;;;;;;;;;5084882;28;20031;-77
2021/04/27 07:10:13;;;;;;;14.32;8.75;;;;;;;;;;5086317;28;20058;-76
2021/04/27 07:12:39;;;;;;;15.68;9.20;;;;;;;;;;5088385;28;20020;-77
2021/04/27 07:15:05;;;;;;;15.15;8.68;;;;;;;;;;5090368;28;20028;-77
2021/04/27 07:17:31;;;;;;;16.70;9.13;;;;;;;;;;5089336;28;20111;-77
2021/04/27 07:19:58;;;;;;;19.40;10.73;;;;;;;;;;5090796;28;20020;-77
2021/04/27 07:22:26;;;;;;;19.20;9.80;;;;;;;;;;5090543;28;20127;-77
2021/04/27 07:24:52;;;;;;;15.52;9.38;;;;;;;;;;5085577;28;20118;-77
2021/04/27 07:27:19;;;;;;;15.38;10.70;;;;;;;;;;5092202;28;20070;-77
2021/04/27 07:29:45;;;;;;;14.48;8.55;;;;;;;;;;5090974;28;20035;-76
2021/04/27 07:32:12;;;;;;;14.20;9.00;;;;;;;;;;5091853;28;20074;-77
2021/04/27 07:34:38;;;;;;;16.00;8.70;;;;;;;;;;5090367;28;20616;-77
2021/04/27 07:37:04;;;;;;;18.60;9.52;;;;;;;;;;5090094;28;20027;-78
2021/04/27 07:39:30;;;;;;;15.98;9.07;;;;;;;;;;5092706;28;20058;-76
2021/04/27 07:41:56;;;;;;;17.02;9.32;;;;;;;;;;5092279;28;20028;-77
2021/04/27 07:44:22;;;;;;;20.13;9.70;;;;;;;;;;5083197;28;20024;-77
2021/04/27 07:46:48;;;;;;;16.90;9.70;;;;;;;;;;5084658;28;20032;-76
2021/04/27 07:49:14;;;;;;;13.88;8.43;;;;;;;;;;5082643;28;20020;-76
2021/04/27 07:51:41;;;;;;;18.48;9.18;;;;;;;;;;5087332;28;20027;-78
2021/04/27 07:54:07;;;;;;;17.88;9.10;;;;;;;;;;5087758;28;20462;-76
2021/04/27 07:56:33;;;;;;;14.30;9.35;;;;;;;;;;5076378;28;20029;-77
2021/04/27 07:59:03;;;;;;;16.48;8.95;;;;;;;;;;5086725;28;20016;-76
2021/04/27 08:01:29;;;;;;;15.35;8.38;;;;;;;;;;5082404;28;20386;-75
2021/04/27 08:03:55;;;;;;;15.40;8.98;;;;;;;;;;5082298;28;20044;-76
2021/04/27 08:06:21;;;;;;;14.40;8.65;;;;;;;;;;5088165;28;20111;-76
2021/04/27 08:08:49;;;;;;;12.55;8.02;;;;;;;;;;5091809;28;20028;-75
2021/04/27 08:11:15;;;;;;;16.25;9.70;;;;;;;;;;5088099;28;20028;-76
2021/04/27 08:13:41;;;;;;;16.48;8.73;;;;;;;;;;5083560;28;20027;-75
2021/04/27 08:16:07;;;;;;;15.90;8.68;;;;;;;;;;5087114;28;20067;-76
2021/04/27 08:18:36;;;;;;;16.83;10.73;;;;;;;;;;5083974;28;20077;-76
2021/04/27 08:21:04;;;;;;;14.15;9.48;;;;;;;;;;5088180;28;20044;-77
2021/04/27 08:23:30;;;;;;;17.23;9.10;;;;;;;;;;5088372;28;20028;-76
2021/04/27 08:25:57;;;;;;;21.00;9.93;;;;;;;;;;5090547;28;20043;-75
2021/04/27 08:28:23;;;;;;;15.20;9.45;;;;;;;;;;5088165;28;20035;-76
2021/04/27 08:30:49;;;;;;;13.80;8.48;;;;;;;;;;5081408;28;20036;-75
2021/04/27 08:33:15;;;;;;;15.75;9.50;;;;;;;;;;5091243;28;20020;-76
2021/04/27 08:35:41;;;;;;;14.32;9.38;;;;;;;;;;5086069;28;20565;-76
2021/04/27 08:38:07;;;;;;;17.10;9.02;;;;;;;;;;5091721;28;20015;-77
2021/04/27 08:40:34;;;;;;;16.50;9.23;;;;;;;;;;5088811;28;20043;-77
2021/04/27 08:43:00;;;;;;;13.18;8.52;;;;;;;;;;5088191;28;20035;-74
2021/04/27 08:45:26;;;;;;;20.70;9.18;;;;;;;;;;5087601;28;20027;-76
2021/04/27 08:47:52;;;;;;;18.05;8.55;;;;;;;;;;5087141;28;20036;-75
2021/04/27 08:50:19;;;;;;;13.52;8.02;;;;;;;;;;5091273;28;20537;-76
2021/04/27 08:52:45;;;;;;;17.13;9.48;;;;;;;;;;5091208;28;20449;-76
2021/04/27 08:55:11;;;;;;;14.02;9.13;;;;;;;;;;5084580;28;20024;-75
2021/04/27 08:57:38;;;;;;;14.75;9.02;;;;;;;;;;5086122;28;20032;-77
2021/04/27 09:00:06;;;;;;;16.35;9.77;;;;;;;;;;5092831;28;20115;-76
2021/04/27 09:02:32;;;;;;;17.02;9.50;;;;;;;;;;5091646;28;20050;-79
2021/04/27 09:04:58;;;;;;;17.38;8.65;;;;;;;;;;5100739;28;20159;-78
2021/04/27 09:07:26;;;;;;;14.20;8.88;;;;;;;;;;5086566;28;20097;-79
2021/04/27 09:09:53;;;;;;;14.68;9.35;;;;;;;;;;5087546;28;20070;-77
2021/04/27 09:12:21;;;;;;;15.60;9.55;;;;;;;;;;5090367;28;20103;-78
2021/04/27 09:14:47;;;;;;;15.77;9.63;;;;;;;;;;5088642;28;20039;-78
2021/04/27 09:17:14;;;;;;;18.77;9.65;;;;;;;;;;5088476;28;20078;-77
2021/04/27 09:19:47;;;;;;;15.77;9.75;;;;;;;;;;5085791;28;20031;-77
2021/04/27 09:22:13;;;;;;;20.17;10.35;;;;;;;;;;5084013;28;20044;-78
2021/04/27 09:24:44;;;;;;;17.33;9.68;;;;;;;;;;5085181;28;20058;-76
2021/04/27 09:27:11;;;;;;;15.25;9.48;;;;;;;;;;5086373;28;20111;-76
2021/04/27 09:29:38;;;;;;;18.85;10.25;;;;;;;;;;5089069;28;20055;-76
2021/04/27 09:32:04;;;;;;;17.35;10.15;;;;;;;;;;5089151;28;20063;-76
2021/04/27 09:34:32;;;;;;;12.75;8.82;;;;;;;;;;5084294;28;20490;-77
2021/04/27 09:37:02;;;;;;;16.10;9.30;;;;;;;;;;5088780;28;20024;-75
2021/04/27 09:39:34;;;;;;;14.95;9.00;;;;;;;;;;5082341;28;20052;-76
2021/04/27 09:42:00;;;;;;;;;;;;;;;;;;5086341;28;20501;-76
2021/04/27 09:44:27;;;;;;;15.73;10.20;;;;;;;;;;5086031;28;19954;-75
2021/04/27 09:47:08;;;;;;;16.73;9.35;;;;;;;;;;5083554;28;20036;-75
2021/04/27 09:49:34;;;;;;;16.60;9.77;;;;;;;;;;5087135;28;20024;-78
2021/04/27 09:52:01;;;;;;;19.77;10.15;;;;;;;;;;5086145;28;20020;-76
2021/04/27 09:54:27;;;;;;;16.05;9.57;;;;;;;;;;5089625;28;20173;-77
2021/04/27 09:56:54;;;;;;;15.05;8.90;;;;;;;;;;5086804;28;21053;-76
2021/04/27 09:59:28;;;;;;;17.00;10.57;;;;;;;;;;5087282;28;20052;-78
2021/04/27 10:01:58;;;;;;;17.63;9.18;;;;;;;;;;5088058;28;20542;-77
2021/04/27 10:04:28;;;;;;;18.10;10.00;;;;;;;;;;5077987;28;20071;-79
2021/04/27 10:06:55;;;;;;;21.75;9.75;;;;;;;;;;5087987;28;20024;-76
2021/04/27 10:09:21;;;;;;;16.55;9.80;;;;;;;;;;5086098;28;20020;-76
2021/04/27 10:11:49;;;;;;;15.63;8.23;;;;;;;;;;5085324;28;20066;-77
2021/04/27 10:14:15;;;;;;;18.10;10.00;;;;;;;;;;5088286;28;20055;-77
2021/04/27 10:16:41;;;;;;;16.83;10.00;;;;;;;;;;5089220;28;20030;-75
2021/04/27 10:19:08;;;;;;;13.75;9.00;;;;;;;;;;5087427;28;20064;-77
2021/04/27 10:21:34;;;;;;;17.40;9.68;;;;;;;;;;5085689;28;20038;-76
2021/04/27 10:24:03;;;;;;;16.70;9.30;;;;;;;;;;5081004;28;20059;-77
2021/04/27 10:26:31;;;;;;;16.65;10.23;;;;;;;;;;5085144;28;20024;-77
2021/04/27 10:29:03;;;;;;;18.15;9.80;;;;;;;;;;5084576;28;20476;-76
2021/04/27 10:31:30;;;;;;;14.82;9.13;;;;;;;;;;5083087;28;20161;-77
2021/04/27 10:34:02;;;;;;;15.77;10.07;;;;;;;;;;5087459;28;20073;-75
2021/04/27 10:36:28;;;;;;;;;;;;;;;;;;5091845;28;20019;-78
2021/04/27 10:38:56;;;;;;;15.75;10.35;;;;;;;;;;5086062;28;19915;-77
2021/04/27 10:41:22;;;;;;;20.48;10.90;;;;;;;;;;5092345;28;20050;-76
2021/04/27 10:43:52;;;;;;;18.67;10.13;;;;;;;;;;5090578;28;20020;-75
2021/04/27 10:46:18;;;;;;;14.10;9.48;;;;;;;;;;5084144;28;20505;-78
2021/04/27 10:48:45;;;;;;;16.45;10.30;;;;;;;;;;5084335;28;20529;-77
2021/04/27 10:51:20;;;;;;;19.25;10.63;;;;;;;;;;5086390;28;20081;-77
2021/04/27 10:54:05;;;;;;;19.38;11.07;;;;;;;;;;5088781;28;20114;-77
2021/04/27 10:56:33;;;;;;;20.63;10.30;;;;;;;;;;5085414;28;20028;-77
2021/04/27 10:59:03;;;;;;;16.35;11.55;;;;;;;;;;5087588;28;20025;-77
2021/04/27 11:01:30;;;;;;;16.27;10.75;;;;;;;;;;5087583;28;20028;-78
2021/04/27 11:03:57;;;;;;;19.60;10.65;;;;;;;;;;5085228;28;20550;-77
2021/04/27 11:06:23;;;;;;;18.13;12.13;;;;;;;;;;5080258;28;20071;-76
2021/04/27 11:08:53;;;;;;;21.20;10.68;;;;;;;;;;5082107;28;20123;-77
2021/04/27 11:11:40;;;;;;;20.02;10.75;;;;;;;;;;5094706;28;20020;-78
2021/04/27 11:14:20;;;;;;;20.42;11.90;;;;;;;;;;5077357;28;20051;-75
2021/04/27 11:16:52;;;;;;;19.63;14.00;;;;;;;;;;5085178;28;20051;-77
2021/04/27 11:19:18;;;;;;;20.92;12.73;;;;;;;;;;5077685;28;20020;-77
2021/04/27 11:21:45;;;;;;;19.05;12.68;;;;;;;;;;5086832;28;20047;-77
2021/04/27 11:24:31;;;;;;;21.88;14.15;;;;;;;;;;5079603;28;20050;-79
2021/04/27 11:26:58;;;;;;;19.80;10.82;;;;;;;;;;5083998;28;20107;-73
2021/04/27 11:29:25;;;;;;;18.60;12.15;;;;;;;;;;5079596;28;20494;-76
2021/04/27 11:31:51;;;;;;;19.98;12.68;;;;;;;;;;5087974;28;20024;-77
2021/04/27 11:34:17;;;;;;;22.58;12.65;;;;;;;;;;5086134;28;20020;-75
2021/04/27 11:36:43;;;;;;;21.15;12.38;;;;;;;;;;5085861;28;20027;-79
2021/04/27 11:39:31;;;;;;;17.13;11.70;;;;;;;;;;5083393;28;20216;-77
2021/04/27 11:41:58;;;;;;;21.42;12.82;;;;;;;;;;5087114;28;20024;-78
2021/04/27 11:44:41;;;;;;;22.00;12.48;;;;;;;;;;5077895;28;20032;-76
2021/04/27 11:47:15;;;;;;;19.80;12.23;;;;;;;;;;5084180;28;20086;-78
2021/04/27 11:49:54;;;;;;;20.02;11.93;;;;;;;;;;5081171;28;20023;-75
2021/04/27 11:52:38;;;;;;;19.83;12.63;;;;;;;;;;5086334;28;20128;-74
2021/04/27 11:55:09;;;;;;;20.73;12.38;;;;;;;;;;5081890;28;20020;-73
2021/04/27 11:57:35;;;;;;;22.05;13.40;;;;;;;;;;5081210;28;20069;-75
2021/04/27 12:00:01;;;;;;;22.45;12.90;;;;;;;;;;5082758;28;20036;-75
2021/04/27 12:02:33;;;;;;;21.38;13.32;;;;;;;;;;5082810;28;20036;-72
2021/04/27 12:05:00;;;;;;;23.35;13.82;;;;;;;;;;5082463;28;20040;-75
2021/04/27 12:07:27;;;;;;;21.92;13.25;;;;;;;;;;5087893;28;20024;-75
2021/04/27 12:09:55;;;;;;;18.52;12.80;;;;;;;;;;5083334;28;20038;-76
2021/04/27 12:12:21;;;;;;;21.95;13.90;;;;;;;;;;5089509;28;20020;-77
2021/04/27 12:14:51;;;;;;;20.38;12.82;;;;;;;;;;5085055;28;20032;-75
2021/04/27 12:17:30;;;;;;;20.42;12.50;;;;;;;;;;5086431;28;20032;-73
2021/04/27 12:20:13;;;;;;;22.42;13.77;;;;;;;;;;5084724;28;20028;-75
2021/04/27 12:22:40;;;;;;;22.70;14.85;;;;;;;;;;5082153;28;20131;-76
2021/04/27 12:25:17;;;;;;;22.70;13.95;;;;;;;;;;5098801;28;20036;-76
2021/04/27 12:27:43;;;;;;;26.55;14.40;;;;;;;;;;5090856;28;20514;-75
2021/04/27 12:30:12;;;;;;;23.63;13.68;;;;;;;;;;5086558;28;20471;-78
2021/04/27 12:32:41;;;;;;;20.27;13.95;;;;;;;;;;5077443;28;20494;-76
2021/04/27 12:35:09;;;;;;;24.10;13.23;;;;;;;;;;5087140;28;20039;-75
2021/04/27 12:37:36;;;;;;;23.50;13.98;;;;;;;;;;5087053;28;20085;-76
2021/04/27 12:40:04;;;;;;;24.73;13.70;;;;;;;;;;5089761;28;20038;-71
2021/04/27 12:42:31;;;;;;;18.45;13.23;;;;;;;;;;5092492;28;20043;-73
2021/04/27 12:44:57;;;;;;;21.70;14.30;;;;;;;;;;5091793;28;20028;-73
2021/04/27 12:47:28;;;;;;;21.15;14.25;;;;;;;;;;5098863;28;20027;-75
2021/04/27 12:50:03;;;;;;;21.63;14.02;;;;;;;;;;5103697;28;20024;-74
2021/04/27 12:52:30;;;;;;;22.15;12.80;;;;;;;;;;5105658;28;20020;-74
2021/04/27 12:55:17;;;;;;;23.50;13.88;;;;;;;;;;5095047;28;20020;-73
2021/04/27 12:57:43;;;;;;;23.90;15.07;;;;;;;;;;5080334;28;20273;-76
2021/04/27 13:00:13;;;;;;;23.00;14.88;;;;;;;;;;5084334;28;20034;-72
2021/04/27 13:02:40;;;;;;;18.50;13.10;;;;;;;;;;5092173;28;20035;-75
2021/04/27 13:05:09;;;;;;;23.23;14.20;;;;;;;;;;5091333;28;20046;-75
2021/04/27 13:07:36;;;;;;;22.40;15.48;;;;;;;;;;5083576;28;20051;-75
2021/04/27 13:10:13;;;;;;;20.33;14.20;;;;;;;;;;5090393;28;20028;-78
2021/04/27 13:12:40;;;;;;;21.05;14.15;;;;;;;;;;5083338;28;20502;-76
2021/04/27 13:15:08;;;;;;;23.00;15.60;;;;;;;;;;5092593;28;20008;-75
2021/04/27 13:17:40;;;;;;;27.55;16.23;;;;;;;;;;5087652;28;20036;-80
2021/04/27 13:20:33;;;;;;;27.98;18.77;;;;;;;;;;5089328;28;20099;-80
2021/04/27 13:23:03;;;;;;;28.10;18.85;;;;;;;;;;5082733;28;20541;-80
2021/04/27 13:25:30;;;;;;;29.15;18.55;;;;;;;;;;5084682;28;20303;-79
2021/04/27 13:28:03;;;;;;;25.85;17.52;;;;;;;;;;5084970;28;20028;-78
2021/04/27 13:30:30;;;;;;;28.33;17.15;;;;;;;;;;5081625;28;20082;-78
2021/04/27 13:33:10;;;;;;;27.67;15.27;;;;;;;;;;5087302;28;20077;-73
2021/04/27 13:35:48;;;;;;;24.92;14.95;;;;;;;;;;5084614;28;20024;-76
2021/04/27 13:38:15;;;;;;;26.83;16.23;;;;;;;;;;5081964;28;20109;-76
2021/04/27 13:40:42;;;;;;;25.48;15.18;;;;;;;;;;5081051;28;20199;-74
2021/04/27 13:43:13;;;;;;;23.17;14.70;;;;;;;;;;5084518;28;20028;-76
2021/04/27 13:45:39;;;;;;;22.50;14.55;;;;;;;;;;5077887;28;20032;-73
2021/04/27 13:48:07;;;;;;;27.67;15.80;;;;;;;;;;5080694;28;20755;-78
2021/04/27 13:50:34;;;;;;;25.42;14.73;;;;;;;;;;5094797;28;20039;-79
2021/04/27 13:53:00;;;;;;;33.97;17.33;;;;;;;;;;5103771;28;20265;-76
2021/04/27 13:55:26;;;;;;;25.42;14.63;;;;;;;;;;5085807;28;20057;-74
2021/04/27 13:57:52;;;;;;;20.95;13.80;;;;;;;;;;5086771;28;20031;-76
2021/04/27 14:00:19;;;;;;;24.40;14.30;;;;;;;;;;5084036;28;20061;-74
2021/04/27 14:02:47;;;;;;;23.45;14.00;;;;;;;;;;5086787;28;20043;-74
2021/04/27 14:05:13;;;;;;;24.83;14.73;;;;;;;;;;5085008;28;20578;-75
2021/04/27 14:07:40;;;;;;;24.50;14.90;;;;;;;;;;5085641;28;20039;-76
2021/04/27 14:10:07;;;;;;;23.63;15.38;;;;;;;;;;5083617;28;20103;-75
2021/04/27 14:12:34;;;;;;;24.20;15.63;;;;;;;;;;5085292;28;20032;-76
2021/04/27 14:15:00;;;;;;;25.88;14.70;;;;;;;;;;5086204;28;20261;-77
2021/04/27 14:17:26;;;;;;;23.98;15.63;;;;;;;;;;5081614;28;20071;-75
2021/04/27 14:19:52;;;;;;;26.45;14.45;;;;;;;;;;5078326;28;20033;-77
2021/04/27 14:22:18;;;;;;;23.33;15.63;;;;;;;;;;5082287;28;20056;-72
2021/04/27 14:24:44;;;;;;;23.17;14.18;;;;;;;;;;5088008;28;20024;-70
2021/04/27 14:27:13;;;;;;;20.48;14.27;;;;;;;;;;5096666;28;20019;-75
2021/04/27 14:29:40;;;;;;;22.55;15.15;;;;;;;;;;5083541;28;20093;-73
2021/04/27 14:32:06;;;;;;;23.33;14.98;;;;;;;;;;5080374;28;20038;-72